createdAt,value
2022-10-29T00:01:26.272Z,101330.03
2022-10-29T00:03:54.094Z,101321.00
2022-10-29T00:06:21.764Z,101324.38
2022-10-29T00:08:50.862Z,101321.69
2022-10-29T00:11:21.039Z,101328.84
2022-10-29T00:13:50.109Z,101328.03
2022-10-29T00:16:19.745Z,101330.69
2022-10-29T00:18:47.730Z,101328.34
2022-10-29T00:21:17.053Z,101336.16
2022-10-29T00:23:44.837Z,101331.66
2022-10-29T00:26:14.810Z,101331.84
2022-10-29T00:28:43.075Z,101331.66
2022-10-29T00:31:13.176Z,101336.16
2022-10-29T00:33:41.191Z,101336.16
2022-10-29T00:36:14.432Z,101329.91
2022-10-29T00:38:42.289Z,101337.31
2022-10-29T00:41:12.823Z,101335.66
2022-10-29T00:43:45.135Z,101321.06
2022-10-29T00:46:15.066Z,101336.22
2022-10-29T00:48:46.731Z,101344.22
2022-10-29T00:51:16.410Z,101339.88
2022-10-29T00:53:47.804Z,101339.03
2022-10-29T00:56:16.382Z,101334.84
2022-10-29T00:58:46.398Z,101331.19
2022-10-29T01:01:15.119Z,101327.84
2022-10-29T01:03:44.354Z,101333.50
2022-10-29T01:06:12.127Z,101326.47
2022-10-29T01:08:39.883Z,101318.09
2022-10-29T01:11:15.617Z,101320.03
2022-10-29T01:14:01.367Z,101316.75
2022-10-29T01:16:40.188Z,101324.31
2022-10-29T01:19:15.484Z,101305.97
2022-10-29T01:21:46.276Z,101317.31
2022-10-29T01:25:03.829Z,101309.03
2022-10-29T01:27:56.647Z,101312.84
2022-10-29T01:30:40.777Z,101310.31
2022-10-29T01:33:17.150Z,101304.72
2022-10-29T01:35:51.654Z,101316.09
2022-10-29T01:38:26.374Z,101322.28
2022-10-29T01:41:02.102Z,101325.78
2022-10-29T01:43:35.916Z,101327.47
2022-10-29T01:46:09.860Z,101310.47
2022-10-29T01:48:43.565Z,101315.50
2022-10-29T01:51:19.215Z,101301.34
2022-10-29T01:53:47.445Z,101303.88
2022-10-29T01:56:15.234Z,101295.50
2022-10-29T01:58:48.319Z,101291.53
2022-10-29T02:01:31.408Z,101280.19
2022-10-29T02:04:13.876Z,101284.84
2022-10-29T02:06:49.897Z,101279.50
2022-10-29T02:09:28.122Z,101286.50
2022-10-29T02:12:03.208Z,101283.81
2022-10-29T02:14:34.959Z,101273.16
2022-10-29T02:17:03.966Z,101269.13
2022-10-29T02:19:34.915Z,101272.50
2022-10-29T02:22:02.728Z,101272.50
2022-10-29T02:24:30.507Z,101262.94
2022-10-29T02:26:58.258Z,101267.19
2022-10-29T02:29:26.014Z,101265.34
2022-10-29T02:31:53.677Z,101268.84
2022-10-29T02:34:21.364Z,101265.47
2022-10-29T02:36:50.428Z,101260.44
2022-10-29T02:39:18.539Z,101261.28
2022-10-29T02:41:46.308Z,101271.94
2022-10-29T02:44:13.978Z,101267.44
2022-10-29T02:46:41.960Z,101269.41
2022-10-29T02:49:09.684Z,101263.38
2022-10-29T02:51:37.801Z,101274.03
2022-10-29T02:54:07.063Z,101267.31
2022-10-29T02:56:34.766Z,101271.44
2022-10-29T02:59:04.285Z,101281.25
2022-10-29T03:01:34.434Z,101279.56
2022-10-29T03:04:02.200Z,101279.84
2022-10-29T03:06:29.890Z,101263.31
2022-10-29T03:08:57.638Z,101259.44
2022-10-29T03:11:26.671Z,101257.63
2022-10-29T03:13:54.381Z,101258.59
2022-10-29T03:16:22.045Z,101251.88
2022-10-29T03:18:49.814Z,101256.38
2022-10-29T03:21:17.538Z,101254.84
2022-10-29T03:23:45.257Z,101248.81
2022-10-29T03:26:12.943Z,101245.44
2022-10-29T03:28:42.041Z,101240.28
2022-10-29T03:31:09.882Z,101235.97
2022-10-29T03:33:37.643Z,101232.59
2022-10-29T03:36:07.175Z,101222.94
2022-10-29T03:38:35.369Z,101224.19
2022-10-29T03:41:08.545Z,101203.09
2022-10-29T03:43:36.584Z,101204.88
2022-10-29T03:46:06.025Z,101207.94
2022-10-29T03:48:34.460Z,101204.88
2022-10-29T03:51:05.825Z,101213.56
2022-10-29T03:53:34.914Z,101219.97
2022-10-29T03:56:03.216Z,101214.34
2022-10-29T03:58:30.987Z,101217.31
2022-10-29T04:01:00.541Z,101223.31
2022-10-29T04:03:31.248Z,101225.84
2022-10-29T04:06:00.362Z,101229.25
2022-10-29T04:08:28.333Z,101222.19
2022-10-29T04:10:56.154Z,101218.97
2022-10-29T04:13:23.879Z,101229.19
2022-10-29T04:15:55.651Z,101241.38
2022-10-29T04:18:23.450Z,101235.22
2022-10-29T04:32:12.581Z,101222.16
2022-10-29T04:34:40.341Z,101215.16
2022-10-29T04:37:09.391Z,101212.50
2022-10-29T04:39:37.135Z,101203.66
2022-10-29T04:42:04.865Z,101201.00
2022-10-29T04:44:32.541Z,101197.22
2022-10-29T04:47:00.273Z,101164.56
2022-10-29T04:49:28.158Z,101141.28
2022-10-29T04:51:55.893Z,101140.75
2022-10-29T04:54:24.986Z,101168.75
2022-10-29T04:56:52.671Z,101181.91
2022-10-29T04:59:20.383Z,101186.84
2022-10-29T05:01:48.098Z,101184.75
2022-10-29T05:04:15.828Z,101173.06
2022-10-29T05:06:43.652Z,101172.22
2022-10-29T05:09:11.756Z,101165.41
2022-10-29T05:11:41.144Z,101130.47
2022-10-29T05:14:08.959Z,101149.56
2022-10-29T05:16:36.652Z,101149.56
2022-10-29T05:19:05.901Z,101142.03
2022-10-29T05:21:33.743Z,101150.56
2022-10-29T05:24:01.639Z,101154.91
2022-10-29T05:26:32.025Z,101150.16
2022-10-29T05:29:01.148Z,101125.03
2022-10-29T05:31:28.886Z,101167.66
2022-10-29T05:33:56.741Z,101160.53
2022-10-29T05:36:24.511Z,101164.16
2022-10-29T05:38:52.316Z,101167.53
2022-10-29T05:41:20.121Z,101139.31
2022-10-29T05:43:49.817Z,101166.69
2022-10-29T05:46:18.988Z,101176.78
2022-10-29T05:48:49.014Z,101167.03
2022-10-29T05:51:16.974Z,101174.28
2022-10-29T05:53:44.758Z,101179.03
2022-10-29T05:56:12.561Z,101177.41
2022-10-29T05:58:40.369Z,101176.00
2022-10-29T06:01:09.310Z,101179.66
2022-10-29T06:03:39.038Z,101174.31
2022-10-29T06:06:07.310Z,101170.69
2022-10-29T06:08:35.460Z,101158.66
2022-10-29T06:11:04.311Z,101158.06
2022-10-29T06:13:32.257Z,101156.09
2022-10-29T06:16:01.259Z,101154.78
2022-10-29T06:18:29.358Z,101116.97
2022-10-29T06:21:00.955Z,101155.34
2022-10-29T06:23:34.193Z,101135.69
2022-10-29T06:26:03.393Z,101150.72
2022-10-29T06:28:34.726Z,101155.88
2022-10-29T06:31:05.758Z,101153.09
2022-10-29T06:33:33.553Z,101144.09
2022-10-29T06:36:02.672Z,101143.28
2022-10-29T06:38:30.408Z,101136.63
2022-10-29T06:40:58.195Z,101138.31
2022-10-29T06:43:25.962Z,101127.66
2022-10-29T06:45:54.024Z,101124.94
2022-10-29T06:48:24.090Z,101133.13
2022-10-29T06:50:52.263Z,101134.97
2022-10-29T06:53:21.639Z,101149.56
2022-10-29T06:55:49.467Z,101168.38
2022-10-29T06:58:19.088Z,101165.28
2022-10-29T07:00:47.642Z,101168.66
2022-10-29T07:03:16.897Z,101171.47
2022-10-29T07:05:44.948Z,101174.13
2022-10-29T07:08:13.496Z,101156.38
2022-10-29T07:10:42.937Z,101172.00
2022-10-29T07:13:13.669Z,101163.19
2022-10-29T07:15:41.445Z,101165.69
2022-10-29T07:18:10.846Z,101166.53
2022-10-29T07:20:40.834Z,101145.13
2022-10-29T07:23:09.483Z,101162.44
2022-10-29T07:25:38.764Z,101145.53
2022-10-29T07:28:12.274Z,101173.63
2022-10-29T07:30:40.426Z,101177.97
2022-10-29T07:33:08.687Z,101177.56
2022-10-29T07:35:37.078Z,101181.53
2022-10-29T07:38:09.060Z,101199.66
2022-10-29T07:40:38.948Z,101162.06
2022-10-29T07:43:08.110Z,101190.69
2022-10-29T07:45:35.873Z,101194.81
2022-10-29T07:48:07.458Z,101189.63
2022-10-29T07:50:35.288Z,101189.19
2022-10-29T07:53:04.165Z,101190.59
2022-10-29T07:55:32.326Z,101193.09
2022-10-29T07:58:02.412Z,101187.63
2022-10-29T08:00:32.423Z,101188.03
2022-10-29T08:03:00.260Z,101187.44
2022-10-29T08:05:29.838Z,101189.06
2022-10-29T08:07:58.503Z,101188.09
2022-10-29T08:10:27.161Z,101181.78
2022-10-29T08:12:57.146Z,101186.81
2022-10-29T08:15:26.117Z,101172.09
2022-10-29T08:17:55.334Z,101153.78
2022-10-29T08:20:24.159Z,101180.88
2022-10-29T08:22:51.892Z,101189.22
2022-10-29T08:25:19.957Z,101171.06
2022-10-29T08:27:58.437Z,101173.63
2022-10-29T08:30:26.159Z,101167.16
2022-10-29T08:32:55.584Z,101156.50
2022-10-29T08:35:23.861Z,101165.34
2022-10-29T08:37:51.655Z,101168.69
2022-10-29T08:40:29.311Z,101155.50
2022-10-29T08:43:19.367Z,101150.19
2022-10-29T08:45:49.212Z,101167.84
2022-10-29T08:48:37.517Z,101167.31
2022-10-29T08:51:14.528Z,101151.47
2022-10-29T08:53:45.513Z,101162.22
2022-10-29T08:56:24.132Z,101169.03
2022-10-29T08:58:58.386Z,101170.41
2022-10-29T09:01:26.446Z,101172.47
2022-10-29T09:03:56.078Z,101171.84
2022-10-29T09:06:29.961Z,101145.81
2022-10-29T09:09:24.841Z,101167.88
2022-10-29T09:12:05.593Z,101167.41
2022-10-29T09:14:45.976Z,101154.28
2022-10-29T09:17:28.166Z,101155.34
2022-10-29T09:20:17.898Z,101158.53
2022-10-29T09:22:54.873Z,101156.38
2022-10-29T09:25:27.717Z,101158.88
2022-10-29T09:28:08.866Z,101163.63
2022-10-29T09:30:45.003Z,101166.34
2022-10-29T09:33:18.078Z,101162.59
2022-10-29T09:35:50.310Z,101168.00
2022-10-29T09:38:22.194Z,101157.19
2022-10-29T09:40:50.123Z,101131.13
2022-10-29T09:43:34.422Z,101164.13
2022-10-29T09:46:09.798Z,101137.72
2022-10-29T09:48:41.887Z,101167.53
2022-10-29T09:51:21.849Z,101147.63
2022-10-29T09:53:51.115Z,101155.47
2022-10-29T09:56:19.549Z,101160.00
2022-10-29T09:58:54.130Z,101158.31
2022-10-29T10:01:22.301Z,101120.06
2022-10-29T10:03:55.991Z,101152.50
2022-10-29T10:06:25.094Z,101151.88
2022-10-29T10:09:04.574Z,101142.69
2022-10-29T10:11:38.800Z,101149.38
2022-10-29T10:14:15.468Z,101150.72
2022-10-29T10:16:44.017Z,101152.22
2022-10-29T10:19:30.387Z,101147.91
2022-10-29T10:22:01.439Z,101147.41
2022-10-29T10:24:32.299Z,101157.91
2022-10-29T10:27:00.827Z,101147.03
2022-10-29T10:29:29.854Z,101149.22
2022-10-29T10:32:16.626Z,101159.25
2022-10-29T10:34:45.808Z,101157.91
2022-10-29T10:37:21.374Z,101152.03
2022-10-29T10:39:53.613Z,101131.34
2022-10-29T10:42:24.781Z,101138.19
2022-10-29T10:44:57.915Z,101136.19
2022-10-29T10:47:30.620Z,101114.78
2022-10-29T10:50:14.774Z,101129.84
2022-10-29T10:52:47.723Z,101115.47
2022-10-29T10:55:24.287Z,101118.00
2022-10-29T10:58:00.401Z,101118.84
2022-10-29T11:00:32.266Z,101111.13
2022-10-29T11:03:06.003Z,101120.16
2022-10-29T11:05:36.522Z,101120.16
2022-10-29T11:08:13.495Z,101113.97
2022-10-29T11:10:48.953Z,101105.63
2022-10-29T11:13:19.051Z,101092.09
2022-10-29T11:15:53.130Z,101107.44
2022-10-29T11:18:25.864Z,101095.78
2022-10-29T11:21:04.215Z,101113.16
2022-10-29T11:23:44.052Z,101102.44
2022-10-29T11:26:17.005Z,101110.81
2022-10-29T11:28:49.763Z,101095.41
2022-10-29T11:31:23.680Z,101100.63
2022-10-29T11:33:59.624Z,101085.41
2022-10-29T11:36:32.309Z,101086.53
2022-10-29T11:39:08.318Z,101095.78
2022-10-29T11:41:45.107Z,101093.44
2022-10-29T11:44:13.981Z,101099.28
2022-10-29T11:46:53.406Z,101086.25
2022-10-29T11:49:40.040Z,101093.25
2022-10-29T11:52:12.074Z,101086.91
2022-10-29T11:55:00.414Z,101086.72
2022-10-29T11:57:36.617Z,101085.72
2022-10-29T12:00:12.023Z,101079.34
2022-10-29T12:03:27.007Z,101085.38
2022-10-29T12:06:05.098Z,101078.34
2022-10-29T12:08:49.586Z,101072.47
2022-10-29T12:11:26.990Z,101083.66
2022-10-29T12:14:08.642Z,101075.81
2022-10-29T12:16:50.374Z,101072.25
2022-10-29T12:19:32.434Z,101069.41
2022-10-29T12:22:12.375Z,101059.53
2022-10-29T12:24:53.867Z,101061.50
2022-10-29T12:27:32.070Z,101069.53
2022-10-29T12:30:03.900Z,101061.50
2022-10-29T12:32:38.971Z,101067.16
2022-10-29T12:35:17.557Z,101049.94
2022-10-29T12:37:59.050Z,101055.56
2022-10-29T12:40:32.382Z,101041.31
2022-10-29T12:43:07.162Z,101047.28
2022-10-29T12:46:06.454Z,101050.94
2022-10-29T12:48:40.013Z,101047.06
2022-10-29T12:51:17.041Z,101046.09
2022-10-29T12:54:03.610Z,101050.28
2022-10-29T12:56:32.887Z,101046.75
2022-10-29T12:59:32.348Z,101045.25
2022-10-29T13:02:19.824Z,101039.56
2022-10-29T13:05:33.658Z,101037.22
2022-10-29T13:08:22.064Z,101033.59
2022-10-29T13:10:56.088Z,101029.44
2022-10-29T13:13:37.736Z,101024.59
2022-10-29T13:16:14.156Z,101023.94
2022-10-29T13:18:52.879Z,101015.78
2022-10-29T13:22:01.033Z,101018.97
2022-10-29T13:24:30.470Z,101015.94
2022-10-29T13:27:01.521Z,101012.78
2022-10-29T13:29:46.690Z,101014.31
2022-10-29T13:32:32.576Z,101011.63
2022-10-29T13:35:01.809Z,101002.75
2022-10-29T13:38:02.834Z,101002.31
2022-10-29T13:41:14.438Z,101003.78
2022-10-29T13:43:45.151Z,101008.94
2022-10-29T13:46:36.826Z,100991.53
2022-10-29T13:49:13.483Z,100994.56
2022-10-29T13:51:51.750Z,100981.53
2022-10-29T13:54:31.454Z,100984.84
2022-10-29T13:57:01.297Z,100990.22
2022-10-29T13:59:42.804Z,100971.53
2022-10-29T14:02:21.725Z,100974.22
2022-10-29T14:04:55.842Z,100971.19
2022-10-29T14:07:29.930Z,100964.16
2022-10-29T14:10:03.614Z,100960.81
2022-10-29T14:12:33.881Z,100956.66
2022-10-29T14:15:11.278Z,100963.19
2022-10-29T14:17:39.819Z,100936.81
2022-10-29T14:20:21.369Z,100969.53
2022-10-29T14:22:49.085Z,100959.84
2022-10-29T14:25:35.671Z,100962.22
2022-10-29T14:28:18.298Z,100964.72
2022-10-29T14:30:47.302Z,100948.53
2022-10-29T14:33:20.224Z,100958.22
2022-10-29T14:35:49.826Z,100957.22
2022-10-29T14:38:18.821Z,100946.06
2022-10-29T14:40:47.700Z,100961.06
2022-10-29T14:43:25.118Z,100956.22
2022-10-29T14:45:53.249Z,100956.56
2022-10-29T14:48:21.335Z,100957.38
2022-10-29T14:50:56.759Z,100949.19
2022-10-29T14:53:30.873Z,100956.38
2022-10-29T14:56:04.369Z,100954.72
2022-10-29T14:58:34.773Z,100934.88
2022-10-29T15:01:05.835Z,100954.94
2022-10-29T15:03:35.788Z,100958.59
2022-10-29T15:06:26.178Z,100950.31
2022-10-29T15:08:57.867Z,100958.28
2022-10-29T15:11:34.193Z,100960.31
2022-10-29T15:14:02.111Z,100954.59
2022-10-29T15:16:31.182Z,100956.63
2022-10-29T15:19:00.896Z,100943.44
2022-10-29T15:21:32.973Z,100947.47
2022-10-29T15:24:06.436Z,100945.28
2022-10-29T15:26:37.428Z,100953.16
2022-10-29T15:29:11.593Z,100947.66
2022-10-29T15:31:45.599Z,100951.47
2022-10-29T15:34:27.280Z,100950.97
2022-10-29T15:36:57.867Z,100933.97
2022-10-29T15:39:30.471Z,100941.84
2022-10-29T15:42:00.774Z,100946.50
2022-10-29T15:44:39.721Z,100954.03
2022-10-29T15:47:21.661Z,100946.34
2022-10-29T15:49:49.391Z,100946.06
2022-10-29T15:52:21.219Z,100939.38
2022-10-29T15:54:49.014Z,100934.53
2022-10-29T15:57:17.746Z,100940.88
2022-10-29T15:59:45.549Z,100902.16
2022-10-29T16:02:14.644Z,100944.09
2022-10-29T16:04:43.753Z,100937.06
2022-10-29T16:07:13.694Z,100931.06
2022-10-29T16:09:46.179Z,100929.38
2022-10-29T16:12:14.185Z,100933.06
2022-10-29T16:14:41.893Z,100932.22
2022-10-29T16:17:14.523Z,100928.41
2022-10-29T16:19:42.306Z,100936.06
2022-10-29T16:22:15.035Z,100924.03
2022-10-29T16:24:44.322Z,100927.69
2022-10-29T16:27:16.931Z,100926.06
2022-10-29T16:29:46.979Z,100927.69
2022-10-29T16:32:16.883Z,100914.53
2022-10-29T16:34:45.071Z,100917.00
2022-10-29T16:37:14.348Z,100884.00
2022-10-29T16:39:42.164Z,100904.53
2022-10-29T16:42:29.126Z,100910.19
2022-10-29T16:44:57.147Z,100909.69
2022-10-29T16:47:25.135Z,100919.22
2022-10-29T16:49:52.932Z,100913.03
2022-10-29T16:52:24.091Z,100916.69
2022-10-29T16:54:54.097Z,100903.34
2022-10-29T16:57:23.700Z,100904.72
2022-10-29T16:59:51.525Z,100900.69
2022-10-29T17:02:19.234Z,100917.38
2022-10-29T17:04:47.024Z,100908.38
2022-10-29T17:07:14.770Z,100903.38
2022-10-29T17:09:42.502Z,100907.03
2022-10-29T17:12:10.258Z,100912.72
2022-10-29T17:14:39.605Z,100903.72
2022-10-29T17:17:07.406Z,100902.53
2022-10-29T17:19:35.131Z,100900.03
2022-10-29T17:22:04.185Z,100905.69
2022-10-29T17:24:31.911Z,100906.03
2022-10-29T17:26:59.939Z,100902.72
2022-10-29T17:29:28.166Z,100904.19
2022-10-29T17:31:58.540Z,100905.03
2022-10-29T17:34:26.404Z,100909.03
2022-10-29T17:36:54.105Z,100914.69
2022-10-29T17:39:22.166Z,100908.50
2022-10-29T17:41:50.619Z,100909.72
2022-10-29T17:44:18.465Z,100918.03
2022-10-29T17:46:46.297Z,100923.69
2022-10-29T17:49:15.367Z,100921.34
2022-10-29T17:51:43.058Z,100925.00
2022-10-29T17:54:13.408Z,100914.66
2022-10-29T17:56:41.317Z,100915.84
2022-10-29T17:59:09.062Z,100922.34
2022-10-29T18:01:36.905Z,100925.47
2022-10-29T18:04:06.254Z,100923.94
2022-10-29T18:06:35.268Z,100926.94
2022-10-29T18:09:02.934Z,100908.91
2022-10-29T18:11:31.130Z,100923.28
2022-10-29T18:13:59.463Z,100921.91
2022-10-29T18:16:29.744Z,100919.41
2022-10-29T18:19:02.793Z,100914.59
2022-10-29T18:21:32.440Z,100926.09
2022-10-29T18:24:01.565Z,100929.75
2022-10-29T18:26:31.033Z,100928.91
2022-10-29T18:29:00.657Z,100930.91
2022-10-29T18:31:30.495Z,100925.56
2022-10-29T18:33:59.084Z,100934.56
2022-10-29T18:36:27.355Z,100912.16
2022-10-29T18:38:56.176Z,100936.72
2022-10-29T18:41:26.056Z,100946.22
2022-10-29T18:43:54.432Z,100945.22
2022-10-29T18:46:22.616Z,100933.19
2022-10-29T18:48:50.697Z,100943.41
2022-10-29T18:51:19.616Z,100943.25
2022-10-29T18:53:47.617Z,100928.19
2022-10-29T18:56:17.926Z,100937.91
2022-10-29T18:58:47.223Z,100924.56
2022-10-29T19:01:17.104Z,100926.41
2022-10-29T19:03:45.475Z,100930.91
2022-10-29T19:06:14.650Z,100923.06
2022-10-29T19:08:43.874Z,100916.69
2022-10-29T19:11:15.040Z,100927.25
2022-10-29T19:13:43.278Z,100909.19
2022-10-29T19:16:14.975Z,100916.75
2022-10-29T19:18:42.717Z,100920.56
2022-10-29T19:21:12.199Z,100913.22
2022-10-29T19:23:40.444Z,100928.56
2022-10-29T19:26:10.783Z,100910.41
2022-10-29T19:28:39.864Z,100916.41
2022-10-29T19:31:09.473Z,100927.91
2022-10-29T19:33:39.322Z,100926.09
2022-10-29T19:36:09.488Z,100922.91
2022-10-29T19:38:37.270Z,100916.38
2022-10-29T19:41:05.028Z,100923.19
2022-10-29T19:43:32.951Z,100929.53
2022-10-29T19:46:00.655Z,100925.19
2022-10-29T19:48:28.319Z,100928.84
2022-10-29T19:50:57.397Z,100925.50
2022-10-29T19:53:27.338Z,100920.00
2022-10-29T19:55:55.258Z,100917.59
2022-10-29T19:58:24.528Z,100925.97
2022-10-29T20:00:52.470Z,100914.47
2022-10-29T20:03:20.558Z,100918.78
2022-10-29T20:05:48.292Z,100919.47
2022-10-29T20:08:17.402Z,100907.44
2022-10-29T20:10:45.464Z,100914.13
2022-10-29T20:13:13.169Z,100916.97
2022-10-29T20:15:40.975Z,100916.44
2022-10-29T20:18:08.644Z,100922.09
2022-10-29T20:20:36.374Z,100913.94
2022-10-29T20:23:04.082Z,100918.94
2022-10-29T20:25:33.155Z,100921.78
2022-10-29T20:28:01.806Z,100918.44
2022-10-29T20:30:29.755Z,100922.09
2022-10-29T20:32:58.129Z,100914.56
2022-10-29T20:35:26.053Z,100920.72
2022-10-29T20:37:53.799Z,100922.72
2022-10-29T20:40:21.475Z,100919.72
2022-10-29T20:42:51.751Z,100927.41
2022-10-29T20:45:20.616Z,100924.06
2022-10-29T20:47:48.280Z,100925.91
2022-10-29T20:50:16.182Z,100931.91
2022-10-29T20:52:48.325Z,100933.59
2022-10-29T20:55:16.701Z,100931.59
2022-10-29T20:57:44.452Z,100930.91
2022-10-29T21:00:14.736Z,100932.59
2022-10-29T21:02:42.514Z,100929.09
2022-10-29T21:05:10.459Z,100928.41
2022-10-29T21:07:40.238Z,100919.41
2022-10-29T21:10:09.328Z,100932.91
2022-10-29T21:12:37.242Z,100936.41
2022-10-29T21:15:05.650Z,100933.75
2022-10-29T21:17:35.416Z,100940.75
2022-10-29T21:20:03.258Z,100937.09
2022-10-29T21:22:31.095Z,100949.72
2022-10-29T21:24:58.859Z,100946.06
2022-10-29T21:27:26.976Z,100952.41
2022-10-29T21:29:54.737Z,100948.06
2022-10-29T21:32:22.443Z,100949.03
2022-10-29T21:34:51.797Z,100950.38
2022-10-29T21:37:19.552Z,100948.06
2022-10-29T21:39:47.310Z,100942.38
2022-10-29T21:42:15.046Z,100949.03
2022-10-29T21:44:42.752Z,100948.53
2022-10-29T21:47:10.483Z,100960.34
2022-10-29T21:49:38.183Z,100963.19
2022-10-29T21:52:07.530Z,100955.34
2022-10-29T21:54:35.656Z,100964.31
2022-10-29T21:57:03.385Z,100965.78
2022-10-29T21:59:31.100Z,100973.63
2022-10-29T22:01:59.479Z,100964.09
2022-10-29T22:04:27.490Z,100935.03
2022-10-29T22:06:55.846Z,100968.59
2022-10-29T22:09:24.972Z,100968.94
2022-10-29T22:11:52.705Z,100972.94
2022-10-29T22:14:20.575Z,100970.28
2022-10-29T22:16:48.283Z,100964.94
2022-10-29T22:19:15.980Z,100965.94
2022-10-29T22:21:45.182Z,100979.63
2022-10-29T22:24:13.044Z,100974.69
2022-10-29T22:26:42.125Z,100977.84
2022-10-29T22:29:10.226Z,100966.72
2022-10-29T22:31:37.960Z,100970.06
2022-10-29T22:34:05.943Z,100961.75
2022-10-29T22:36:33.665Z,100965.25
2022-10-29T22:39:02.174Z,100944.03
2022-10-29T22:41:30.717Z,100962.75
2022-10-29T22:44:00.749Z,100958.78
2022-10-29T22:46:29.891Z,100954.44
2022-10-29T22:48:57.983Z,100946.13
2022-10-29T22:51:27.059Z,100954.13
2022-10-29T22:53:55.190Z,100944.47
2022-10-29T22:56:25.179Z,100956.78
2022-10-29T22:58:53.372Z,100948.94
2022-10-29T23:01:31.496Z,100949.78
2022-10-29T23:03:59.960Z,100940.59
2022-10-29T23:06:28.422Z,100884.28
2022-10-29T23:08:58.473Z,100955.13
2022-10-29T23:11:28.258Z,100957.78
2022-10-29T23:13:57.534Z,100935.56
2022-10-29T23:16:27.190Z,100928.22
2022-10-29T23:18:58.392Z,100955.44
2022-10-29T23:21:26.316Z,100953.91
2022-10-29T23:23:54.497Z,100950.56
2022-10-29T23:26:24.065Z,100948.75
2022-10-29T23:28:52.131Z,100952.41
2022-10-29T23:31:21.666Z,100950.72
2022-10-29T23:33:50.945Z,100942.38
2022-10-29T23:36:21.951Z,100953.38
2022-10-29T23:38:54.628Z,100946.03
2022-10-29T23:41:22.368Z,100952.72
2022-10-29T23:43:50.125Z,100960.22
2022-10-29T23:46:18.017Z,100948.03
2022-10-29T23:48:45.870Z,100959.72
2022-10-29T23:51:13.626Z,100950.72
2022-10-29T23:53:42.722Z,100965.19
2022-10-29T23:56:10.386Z,100951.88
2022-10-29T23:58:38.147Z,100956.38
